WetterOnline ( https://www.wetteronline.de )

Wetter aktuell Bellavista

Aktuelles Wetter: Capo Bellavista (150m)

6-stündlich | Neueste Meldungen
Ortszeit Temperatur Wetter
Mi, 17.07. 20:00 26.2° C leicht bewölkt
Mi, 17.07. 14:00 32.0° C leicht bewölkt
Mi, 17.07. 8:00 22.0° C wolkenlos
Mi, 17.07. 2:00 21.4° C wolkenlos
Di, 16.07. 20:00 23.0° C fast wolkenlos
Di, 16.07. 14:00 23.8° C leicht bewölkt
Di, 16.07. 8:00 21.6° C Schauer
Di, 16.07. 2:00 22.6° C leicht bewölkt
Ortszeit Temperatur Wetter
Mi, 17.07. 20:00 26.2° C leicht bewölkt
Mi, 17.07. 19:55 26° C leicht bewölkt
Mi, 17.07. 19:00 29.0° C leicht bewölkt
Mi, 17.07. 18:55 29° C leicht bewölkt
Mi, 17.07. 18:00 29.2° C leicht bewölkt
Mi, 17.07. 17:55 29° C leicht bewölkt
Mi, 17.07. 17:00 30.2° C leicht bewölkt
Mi, 17.07. 16:55 30° C leicht bewölkt
Mi, 17.07. 16:00 31.0° C leicht bewölkt
Ortszeit Relative Feuchte Sichtweite
Mi, 17.07. 20:00 71% 20 km
Mi, 17.07. 14:00 36% 20 km
Mi, 17.07. 8:00 43% 20 km
Mi, 17.07. 2:00 61% 20 km
Di, 16.07. 20:00 67% 30 km
Di, 16.07. 14:00 65% 20 km
Di, 16.07. 8:00 74% 2 km
Di, 16.07. 2:00 45% 20 km
Ortszeit Relative Feuchte Sichtweite
Mi, 17.07. 20:00 71% 20 km
Mi, 17.07. 19:55 74% >10 km
Mi, 17.07. 19:00 55% 20 km
Mi, 17.07. 18:55 55% >10 km
Mi, 17.07. 18:00 45% 20 km
Mi, 17.07. 17:55 45% >10 km
Mi, 17.07. 17:00 40% 20 km
Mi, 17.07. 16:55 40% >10 km
Mi, 17.07. 16:00 37% 20 km
Ortszeit Niederschlagsmenge Niederschlagsart
Mi, 17.07. 20:00 0.0 l/m2 in 12 Std. -
Mi, 17.07. 14:00 0.0 l/m2 in 6 Std. -
Mi, 17.07. 8:00 0.0 l/m2 in 12 Std. -
Mi, 17.07. 2:00 0.0 l/m2 in 6 Std. -
Di, 16.07. 20:00 5 l/m2 in 12 Std. -
Di, 16.07. 14:00 5 l/m2 in 6 Std. Schauer
Di, 16.07. 8:00 0.0 l/m2 in 12 Std. -
Di, 16.07. 2:00 0.0 l/m2 in 6 Std. -
Ortszeit Niederschlagsmenge Niederschlagsart
Mi, 17.07. 20:00 keine Meldung -
Mi, 17.07. 19:55 keine Meldung -
Mi, 17.07. 19:00 keine Meldung -
Mi, 17.07. 18:55 keine Meldung -
Mi, 17.07. 18:00 keine Meldung -
Mi, 17.07. 17:55 keine Meldung -
Mi, 17.07. 17:00 keine Meldung -
Mi, 17.07. 16:55 keine Meldung -
Mi, 17.07. 16:00 keine Meldung -
Ortszeit Stärke Spitze Richtung
km/h Bft. km/h Grad Sektor
Mi, 17.07. 20:00 7 2 - 160° S
Mi, 17.07. 14:00 7 2 - 70° O
Mi, 17.07. 8:00 13 3 - 300° NW
Mi, 17.07. 2:00 11 2 - 330° NW
Di, 16.07. 20:00 41 6 - 50° NO
Di, 16.07. 14:00 54 7 - 50° NO
Di, 16.07. 8:00 33 5 - 360° N
Di, 16.07. 2:00 11 2 - 270° W
Ortszeit Stärke Spitze Richtung
km/h Bft. km/h Grad Sektor
Mi, 17.07. 20:00 7 2 - 160° S
Mi, 17.07. 19:55 7 2 - 160° S
Mi, 17.07. 19:00 9 2 - 170° S
Mi, 17.07. 18:55 9 2 - 170° S
Mi, 17.07. 18:00 7 2 - 70° O
Mi, 17.07. 17:55 7 2 - 70° O
Mi, 17.07. 17:00 9 2 - 240° SW
Mi, 17.07. 16:55 9 2 - 240° SW
Mi, 17.07. 16:00 13 3 - 200° S
Ortszeit Untergrenze Bedeckung Gattung
total tief tief mittel hoch
Mi, 17.07. 20:00 1200 m 6/8 1/8 Cu As Ci
Mi, 17.07. 14:00 1200 m 3/8 1/8 Cu - Ci
Mi, 17.07. 8:00 - 0/8 0/8 - - -
Mi, 17.07. 2:00 - 0/8 0/8 - - -
Di, 16.07. 20:00 1200 m 1/8 1/8 Sc - -
Di, 16.07. 14:00 300 m 4/8 4/8 Cu - -
Di, 16.07. 8:00 300 m 7/8 7/8 Cb - -
Di, 16.07. 2:00 750 m 5/8 1/8 Cu As -
Ortszeit Bedeckungsgrad in Achtel und Wolkenuntergrenze
Mi, 17.07. 20:00 1(1200m) 3(3000m)
Mi, 17.07. 19:55 1-2(1200m)
Mi, 17.07. 19:00 1(1200m)
Mi, 17.07. 18:55 1-2(1200m)
Mi, 17.07. 18:00 1(1200m)
Mi, 17.07. 17:55 1-2(1200m)
Mi, 17.07. 17:00 1(1200m)
Mi, 17.07. 16:55 1-2(1200m)
Mi, 17.07. 16:00 1(1200m) 3(3000m)
Ortszeit Luftdruck NN (hPa) Tendenz (hPa in 3 Std.)
Mi, 17.07. 20:00 1012 - 1,0
Mi, 17.07. 14:00 1013 0,0
Mi, 17.07. 8:00 1013 + 0,1
Mi, 17.07. 2:00 1014 - 0,1
Di, 16.07. 20:00 1012 + 0,9
Di, 16.07. 14:00 1011 + 1,1
Di, 16.07. 8:00 1008 + 2,2
Di, 16.07. 2:00 1005 - 0,7
Ortszeit Luftdruck NN (hPa) Tendenz (hPa in 3 Std.)
Mi, 17.07. 20:00 1012 - 1,0
Mi, 17.07. 19:55 1012 keine Meldung
Mi, 17.07. 19:00 1012 - 1,0
Mi, 17.07. 18:55 1012 keine Meldung
Mi, 17.07. 18:00 1012 - 0,8
Mi, 17.07. 17:55 1013 keine Meldung
Mi, 17.07. 17:00 1013 0,0
Mi, 17.07. 16:55 1013 keine Meldung
Mi, 17.07. 16:00 1013 0,0
Ortszeit Schneehöhe (cm)
Mi, 17.07. 20:00 -
Mi, 17.07. 14:00 -
Mi, 17.07. 8:00 -
Mi, 17.07. 2:00 -
Di, 16.07. 20:00 -
Di, 16.07. 14:00 -
Di, 16.07. 8:00 -
Di, 16.07. 2:00 -
Ortszeit Schneehöhe (cm)
Mi, 17.07. 20:00 -
Mi, 17.07. 19:55 -
Mi, 17.07. 19:00 -
Mi, 17.07. 18:55 -
Mi, 17.07. 18:00 -
Mi, 17.07. 17:55 -
Mi, 17.07. 17:00 -
Mi, 17.07. 16:55 -
Mi, 17.07. 16:00 -
Link zu dieser Seite / Seite empfehlen

Das Wetter in ...